sensor_id;sensor_type;location;lat;lon;timestamp;P1;durP1;ratioP1;P2;durP2;ratioP2
6902;SDS011;20232;49.408;8.702;2023-06-10T04:01:37;6.07;;;4.90;;
6902;SDS011;20232;49.408;8.702;2023-06-10T04:04:06;6.80;;;5.30;;
6902;SDS011;20232;49.408;8.702;2023-06-10T04:06:33;5.83;;;5.33;;
6902;SDS011;20232;49.408;8.702;2023-06-10T04:08:58;5.73;;;5.20;;
6902;SDS011;20232;49.408;8.702;2023-06-10T04:11:26;5.80;;;5.20;;
6902;SDS011;20232;49.408;8.702;2023-06-10T04:13:52;5.37;;;4.87;;
6902;SDS011;20232;49.408;8.702;2023-06-10T04:16:18;5.77;;;5.17;;
6902;SDS011;20232;49.408;8.702;2023-06-10T04:18:43;6.00;;;5.40;;
6902;SDS011;20232;49.408;8.702;2023-06-10T04:21:10;6.57;;;5.87;;
6902;SDS011;20232;49.408;8.702;2023-06-10T04:23:36;6.97;;;5.70;;
6902;SDS011;20232;49.408;8.702;2023-06-10T04:26:04;6.07;;;5.53;;
6902;SDS011;20232;49.408;8.702;2023-06-10T04:28:31;6.50;;;5.93;;
6902;SDS011;20232;49.408;8.702;2023-06-10T04:30:57;6.70;;;6.20;;
6902;SDS011;20232;49.408;8.702;2023-06-10T04:33:23;7.00;;;6.30;;
6902;SDS011;20232;49.408;8.702;2023-06-10T04:35:49;6.77;;;6.17;;
6902;SDS011;20232;49.408;8.702;2023-06-10T04:38:17;7.00;;;6.40;;
6902;SDS011;20232;49.408;8.702;2023-06-10T04:40:43;6.93;;;6.37;;
6902;SDS011;20232;49.408;8.702;2023-06-10T04:43:11;6.77;;;6.17;;
6902;SDS011;20232;49.408;8.702;2023-06-10T04:45:37;8.40;;;6.27;;
6902;SDS011;20232;49.408;8.702;2023-06-10T04:48:02;7.27;;;6.57;;
6902;SDS011;20232;49.408;8.702;2023-06-10T04:50:28;7.10;;;6.40;;
6902;SDS011;20232;49.408;8.702;2023-06-10T04:52:53;6.63;;;5.97;;
6902;SDS011;20232;49.408;8.702;2023-06-10T04:55:22;7.10;;;6.40;;
6902;SDS011;20232;49.408;8.702;2023-06-10T04:57:48;8.00;;;6.20;;
6902;SDS011;20232;49.408;8.702;2023-06-10T05:00:13;8.47;;;6.50;;
6902;SDS011;20232;49.408;8.702;2023-06-10T05:02:39;7.03;;;6.43;;
6902;SDS011;20232;49.408;8.702;2023-06-10T05:05:04;7.13;;;6.43;;
6902;SDS011;20232;49.408;8.702;2023-06-10T05:07:31;7.20;;;6.57;;
6902;SDS011;20232;49.408;8.702;2023-06-10T05:09:56;7.17;;;6.57;;
6902;SDS011;20232;49.408;8.702;2023-06-10T05:12:22;7.03;;;6.43;;
6902;SDS011;20232;49.408;8.702;2023-06-10T05:14:47;7.03;;;6.47;;
6902;SDS011;20232;49.408;8.702;2023-06-10T05:17:13;7.10;;;6.50;;
6902;SDS011;20232;49.408;8.702;2023-06-10T05:19:38;6.93;;;6.27;;
6902;SDS011;20232;49.408;8.702;2023-06-10T05:22:03;7.27;;;6.57;;
6902;SDS011;20232;49.408;8.702;2023-06-10T05:24:29;7.30;;;6.70;;
6902;SDS011;20232;49.408;8.702;2023-06-10T05:26:54;6.77;;;6.27;;
6902;SDS011;20232;49.408;8.702;2023-06-10T05:29:20;7.33;;;6.60;;
6902;SDS011;20232;49.408;8.702;2023-06-10T05:31:45;6.87;;;6.17;;
6902;SDS011;20232;49.408;8.702;2023-06-10T05:34:11;6.73;;;6.17;;
6902;SDS011;20232;49.408;8.702;2023-06-10T05:36:36;6.93;;;6.33;;
6902;SDS011;20232;49.408;8.702;2023-06-10T05:39:02;7.23;;;6.50;;
6902;SDS011;20232;49.408;8.702;2023-06-10T05:41:28;7.67;;;6.13;;
6902;SDS011;20232;49.408;8.702;2023-06-10T05:43:53;6.83;;;6.23;;
6902;SDS011;20232;49.408;8.702;2023-06-10T05:46:19;6.27;;;5.77;;
6902;SDS011;20232;49.408;8.702;2023-06-10T05:48:44;6.50;;;6.00;;
6902;SDS011;20232;49.408;8.702;2023-06-10T05:51:10;6.27;;;5.77;;
6902;SDS011;20232;49.408;8.702;2023-06-10T05:53:35;6.50;;;6.00;;
6902;SDS011;20232;49.408;8.702;2023-06-10T05:56:01;6.47;;;5.87;;
6902;SDS011;20232;49.408;8.702;2023-06-10T05:58:26;6.03;;;5.50;;
6902;SDS011;20232;49.408;8.702;2023-06-10T06:00:51;6.37;;;5.80;;
6902;SDS011;20232;49.408;8.702;2023-06-10T06:03:17;6.27;;;5.67;;
6902;SDS011;20232;49.408;8.702;2023-06-10T06:05:42;5.70;;;5.20;;
6902;SDS011;20232;49.408;8.702;2023-06-10T06:08:09;5.73;;;5.30;;
6902;SDS011;20232;49.408;8.702;2023-06-10T06:10:34;5.90;;;5.40;;
6902;SDS011;20232;49.408;8.702;2023-06-10T06:13:00;6.27;;;5.00;;
6902;SDS011;20232;49.408;8.702;2023-06-10T06:15:25;5.43;;;4.70;;
6902;SDS011;20232;49.408;8.702;2023-06-10T06:17:51;5.50;;;4.60;;
6902;SDS011;20232;49.408;8.702;2023-06-10T06:20:19;4.83;;;4.43;;
6902;SDS011;20232;49.408;8.702;2023-06-10T06:22:45;9.53;;;5.20;;
6902;SDS011;20232;49.408;8.702;2023-06-10T06:25:10;5.37;;;4.87;;
6902;SDS011;20232;49.408;8.702;2023-06-10T06:27:36;4.90;;;4.53;;
6902;SDS011;20232;49.408;8.702;2023-06-10T06:30:01;4.70;;;4.30;;
6902;SDS011;20232;49.408;8.702;2023-06-10T06:32:27;5.33;;;4.87;;
6902;SDS011;20232;49.408;8.702;2023-06-10T06:34:52;5.07;;;4.67;;
6902;SDS011;20232;49.408;8.702;2023-06-10T06:37:23;5.00;;;4.50;;
6902;SDS011;20232;49.408;8.702;2023-06-10T06:39:51;4.70;;;4.23;;
6902;SDS011;20232;49.408;8.702;2023-06-10T06:42:18;5.30;;;4.60;;
6902;SDS011;20232;49.408;8.702;2023-06-10T06:44:56;5.30;;;4.80;;
6902;SDS011;20232;49.408;8.702;2023-06-10T06:47:21;4.83;;;4.33;;
6902;SDS011;20232;49.408;8.702;2023-06-10T06:49:47;4.70;;;4.10;;
6902;SDS011;20232;49.408;8.702;2023-06-10T06:52:13;8.20;;;6.77;;
6902;SDS011;20232;49.408;8.702;2023-06-10T06:54:38;8.27;;;4.33;;
6902;SDS011;20232;49.408;8.702;2023-06-10T06:57:04;4.30;;;4.00;;
6902;SDS011;20232;49.408;8.702;2023-06-10T06:59:30;4.67;;;4.20;;
6902;SDS011;20232;49.408;8.702;2023-06-10T07:01:56;5.03;;;4.40;;
6902;SDS011;20232;49.408;8.702;2023-06-10T07:04:21;4.50;;;4.20;;
6902;SDS011;20232;49.408;8.702;2023-06-10T07:06:47;5.33;;;3.80;;
6902;SDS011;20232;49.408;8.702;2023-06-10T07:09:13;4.30;;;4.00;;
6902;SDS011;20232;49.408;8.702;2023-06-10T07:11:39;4.83;;;3.97;;
6902;SDS011;20232;49.408;8.702;2023-06-10T07:14:04;3.83;;;3.53;;
6902;SDS011;20232;49.408;8.702;2023-06-10T07:16:30;4.40;;;4.00;;
6902;SDS011;20232;49.408;8.702;2023-06-10T07:18:55;4.47;;;4.07;;
6902;SDS011;20232;49.408;8.702;2023-06-10T07:21:21;3.50;;;3.20;;
6902;SDS011;20232;49.408;8.702;2023-06-10T07:23:47;3.73;;;3.43;;
6902;SDS011;20232;49.408;8.702;2023-06-10T07:26:13;3.63;;;3.43;;
6902;SDS011;20232;49.408;8.702;2023-06-10T07:28:41;4.07;;;3.77;;
6902;SDS011;20232;49.408;8.702;2023-06-10T07:31:07;13.00;;;11.13;;
6902;SDS011;20232;49.408;8.702;2023-06-10T07:33:33;4.03;;;3.73;;
6902;SDS011;20232;49.408;8.702;2023-06-10T07:35:58;3.37;;;3.17;;
6902;SDS011;20232;49.408;8.702;2023-06-10T07:38:24;4.67;;;3.90;;
6902;SDS011;20232;49.408;8.702;2023-06-10T07:40:50;4.37;;;3.97;;
6902;SDS011;20232;49.408;8.702;2023-06-10T07:43:15;3.70;;;3.40;;
6902;SDS011;20232;49.408;8.702;2023-06-10T07:45:41;4.20;;;3.73;;
6902;SDS011;20232;49.408;8.702;2023-06-10T07:48:06;3.53;;;3.33;;
6902;SDS011;20232;49.408;8.702;2023-06-10T07:50:32;3.60;;;3.30;;
6902;SDS011;20232;49.408;8.702;2023-06-10T07:52:58;4.07;;;3.67;;
6902;SDS011;20232;49.408;8.702;2023-06-10T07:55:23;3.80;;;3.50;;
6902;SDS011;20232;49.408;8.702;2023-06-10T07:57:51;3.90;;;3.60;;
6902;SDS011;20232;49.408;8.702;2023-06-10T08:00:17;4.87;;;3.40;;
6902;SDS011;20232;49.408;8.702;2023-06-10T08:02:44;4.10;;;3.70;;
6902;SDS011;20232;49.408;8.702;2023-06-10T08:05:09;3.90;;;3.60;;
6902;SDS011;20232;49.408;8.702;2023-06-10T08:07:35;3.67;;;3.47;;
6902;SDS011;20232;49.408;8.702;2023-06-10T08:10:00;3.90;;;3.60;;
6902;SDS011;20232;49.408;8.702;2023-06-10T08:12:26;3.90;;;3.60;;
6902;SDS011;20232;49.408;8.702;2023-06-10T08:14:51;4.30;;;3.90;;
6902;SDS011;20232;49.408;8.702;2023-06-10T08:17:17;3.93;;;3.53;;
6902;SDS011;20232;49.408;8.702;2023-06-10T08:19:42;4.40;;;4.00;;
6902;SDS011;20232;49.408;8.702;2023-06-10T08:22:07;4.00;;;3.70;;
6902;SDS011;20232;49.408;8.702;2023-06-10T08:24:33;4.07;;;3.70;;
6902;SDS011;20232;49.408;8.702;2023-06-10T08:26:58;4.10;;;3.70;;
6902;SDS011;20232;49.408;8.702;2023-06-10T08:29:24;5.77;;;3.87;;
6902;SDS011;20232;49.408;8.702;2023-06-10T08:31:50;4.23;;;3.83;;
6902;SDS011;20232;49.408;8.702;2023-06-10T08:34:15;4.23;;;3.80;;
6902;SDS011;20232;49.408;8.702;2023-06-10T08:36:41;4.30;;;3.90;;
6902;SDS011;20232;49.408;8.702;2023-06-10T08:39:06;4.87;;;3.87;;
6902;SDS011;20232;49.408;8.702;2023-06-10T08:41:36;3.93;;;3.63;;
6902;SDS011;20232;49.408;8.702;2023-06-10T08:44:17;4.50;;;4.10;;
6902;SDS011;20232;49.408;8.702;2023-06-10T08:46:47;5.10;;;4.23;;
6902;SDS011;20232;49.408;8.702;2023-06-10T08:49:17;5.97;;;4.00;;
6902;SDS011;20232;49.408;8.702;2023-06-10T08:51:47;4.30;;;3.90;;
6902;SDS011;20232;49.408;8.702;2023-06-10T08:54:17;4.73;;;3.67;;
6902;SDS011;20232;49.408;8.702;2023-06-10T08:56:44;4.07;;;3.77;;
6902;SDS011;20232;49.408;8.702;2023-06-10T08:59:13;3.97;;;3.67;;
6902;SDS011;20232;49.408;8.702;2023-06-10T09:01:39;4.93;;;3.70;;
6902;SDS011;20232;49.408;8.702;2023-06-10T09:04:05;4.07;;;3.77;;
6902;SDS011;20232;49.408;8.702;2023-06-10T09:06:31;4.80;;;4.10;;
6902;SDS011;20232;49.408;8.702;2023-06-10T09:08:57;4.03;;;3.63;;
6902;SDS011;20232;49.408;8.702;2023-06-10T09:11:23;4.10;;;3.80;;
6902;SDS011;20232;49.408;8.702;2023-06-10T09:13:50;4.37;;;3.70;;
6902;SDS011;20232;49.408;8.702;2023-06-10T09:16:15;4.17;;;3.80;;
6902;SDS011;20232;49.408;8.702;2023-06-10T09:18:41;4.00;;;3.70;;
6902;SDS011;20232;49.408;8.702;2023-06-10T09:21:07;4.50;;;4.10;;
6902;SDS011;20232;49.408;8.702;2023-06-10T09:23:32;4.13;;;3.83;;
6902;SDS011;20232;49.408;8.702;2023-06-10T09:25:58;5.43;;;4.00;;
6902;SDS011;20232;49.408;8.702;2023-06-10T09:28:23;4.53;;;4.00;;
6902;SDS011;20232;49.408;8.702;2023-06-10T09:30:49;4.37;;;3.93;;
6902;SDS011;20232;49.408;8.702;2023-06-10T09:33:15;4.10;;;3.70;;
6902;SDS011;20232;49.408;8.702;2023-06-10T09:35:45;4.20;;;3.73;;
6902;SDS011;20232;49.408;8.702;2023-06-10T09:38:11;4.77;;;4.00;;
6902;SDS011;20232;49.408;8.702;2023-06-10T09:43:20;3.93;;;3.63;;
6902;SDS011;20232;49.408;8.702;2023-06-10T09:45:51;4.87;;;4.13;;
6902;SDS011;20232;49.408;8.702;2023-06-10T09:48:19;4.23;;;3.83;;
6902;SDS011;20232;49.408;8.702;2023-06-10T09:50:45;4.37;;;4.07;;
6902;SDS011;20232;49.408;8.702;2023-06-10T09:53:11;5.20;;;3.70;;
6902;SDS011;20232;49.408;8.702;2023-06-10T09:55:37;4.33;;;3.90;;
6902;SDS011;20232;49.408;8.702;2023-06-10T09:58:03;4.00;;;3.57;;
6902;SDS011;20232;49.408;8.702;2023-06-10T10:00:28;3.83;;;3.53;;
6902;SDS011;20232;49.408;8.702;2023-06-10T10:02:58;4.53;;;4.10;;
6902;SDS011;20232;49.408;8.702;2023-06-10T10:05:23;4.37;;;4.07;;
6902;SDS011;20232;49.408;8.702;2023-06-10T10:07:49;4.43;;;3.93;;
6902;SDS011;20232;49.408;8.702;2023-06-10T10:10:15;6.03;;;4.10;;
6902;SDS011;20232;49.408;8.702;2023-06-10T10:12:41;4.20;;;3.90;;
6902;SDS011;20232;49.408;8.702;2023-06-10T10:15:07;4.13;;;3.80;;
6902;SDS011;20232;49.408;8.702;2023-06-10T10:18:07;4.47;;;4.07;;
6902;SDS011;20232;49.408;8.702;2023-06-10T10:20:32;4.37;;;3.80;;
6902;SDS011;20232;49.408;8.702;2023-06-10T10:22:59;4.30;;;3.70;;
6902;SDS011;20232;49.408;8.702;2023-06-10T10:25:29;4.03;;;3.63;;
6902;SDS011;20232;49.408;8.702;2023-06-10T10:28:07;4.20;;;3.67;;
6902;SDS011;20232;49.408;8.702;2023-06-10T10:30:44;4.07;;;3.77;;
6902;SDS011;20232;49.408;8.702;2023-06-10T10:33:12;5.63;;;3.60;;
6902;SDS011;20232;49.408;8.702;2023-06-10T10:35:41;4.23;;;3.50;;
6902;SDS011;20232;49.408;8.702;2023-06-10T10:38:07;4.10;;;3.60;;
6902;SDS011;20232;49.408;8.702;2023-06-10T10:40:32;3.60;;;3.30;;
6902;SDS011;20232;49.408;8.702;2023-06-10T10:42:58;3.97;;;3.67;;
6902;SDS011;20232;49.408;8.702;2023-06-10T10:45:24;4.80;;;3.90;;
6902;SDS011;20232;49.408;8.702;2023-06-10T10:47:52;4.23;;;3.60;;
6902;SDS011;20232;49.408;8.702;2023-06-10T10:50:20;5.90;;;3.90;;
6902;SDS011;20232;49.408;8.702;2023-06-10T10:55:19;3.90;;;3.60;;
6902;SDS011;20232;49.408;8.702;2023-06-10T10:57:44;3.80;;;3.40;;
6902;SDS011;20232;49.408;8.702;2023-06-10T11:00:29;4.07;;;3.30;;
6902;SDS011;20232;49.408;8.702;2023-06-10T11:02:57;3.93;;;3.53;;
6902;SDS011;20232;49.408;8.702;2023-06-10T11:08:12;4.37;;;3.50;;
6902;SDS011;20232;49.408;8.702;2023-06-10T11:10:50;5.93;;;3.30;;
6902;SDS011;20232;49.408;8.702;2023-06-10T11:13:19;4.93;;;3.40;;
6902;SDS011;20232;49.408;8.702;2023-06-10T11:15:49;4.73;;;3.57;;
6902;SDS011;20232;49.408;8.702;2023-06-10T11:18:25;3.73;;;3.43;;
6902;SDS011;20232;49.408;8.702;2023-06-10T11:20:52;4.13;;;3.33;;
6902;SDS011;20232;49.408;8.702;2023-06-10T11:31:22;4.03;;;3.00;;
6902;SDS011;20232;49.408;8.702;2023-06-10T11:33:50;3.80;;;3.47;;
6902;SDS011;20232;49.408;8.702;2023-06-10T11:36:21;3.93;;;3.40;;
6902;SDS011;20232;49.408;8.702;2023-06-10T11:38:47;3.40;;;3.20;;
6902;SDS011;20232;49.408;8.702;2023-06-10T11:41:13;3.60;;;3.30;;
6902;SDS011;20232;49.408;8.702;2023-06-10T11:43:45;3.50;;;3.20;;
6902;SDS011;20232;49.408;8.702;2023-06-10T11:46:11;3.73;;;3.43;;
6902;SDS011;20232;49.408;8.702;2023-06-10T11:48:39;8.13;;;3.63;;
6902;SDS011;20232;49.408;8.702;2023-06-10T11:51:14;3.60;;;3.30;;
6902;SDS011;20232;49.408;8.702;2023-06-10T11:53:39;3.57;;;3.27;;
6902;SDS011;20232;49.408;8.702;2023-06-10T11:56:05;3.80;;;3.27;;
6902;SDS011;20232;49.408;8.702;2023-06-10T11:58:30;3.10;;;2.90;;
6902;SDS011;20232;49.408;8.702;2023-06-10T12:00:56;4.10;;;3.20;;
6902;SDS011;20232;49.408;8.702;2023-06-10T12:03:23;3.27;;;3.00;;
6902;SDS011;20232;49.408;8.702;2023-06-10T12:08:24;3.20;;;3.00;;
6902;SDS011;20232;49.408;8.702;2023-06-10T12:10:50;3.10;;;2.80;;
6902;SDS011;20232;49.408;8.702;2023-06-10T12:13:16;4.30;;;3.00;;
6902;SDS011;20232;49.408;8.702;2023-06-10T12:15:43;3.10;;;2.90;;
6902;SDS011;20232;49.408;8.702;2023-06-10T12:18:15;3.40;;;3.10;;
6902;SDS011;20232;49.408;8.702;2023-06-10T12:20:41;3.47;;;3.23;;
6902;SDS011;20232;49.408;8.702;2023-06-10T12:23:10;3.50;;;3.17;;
6902;SDS011;20232;49.408;8.702;2023-06-10T12:25:36;3.23;;;2.93;;
6902;SDS011;20232;49.408;8.702;2023-06-10T12:28:03;3.87;;;3.07;;
6902;SDS011;20232;49.408;8.702;2023-06-10T12:30:29;6.23;;;3.80;;
6902;SDS011;20232;49.408;8.702;2023-06-10T12:32:55;3.30;;;3.10;;
6902;SDS011;20232;49.408;8.702;2023-06-10T12:35:21;3.13;;;2.93;;
6902;SDS011;20232;49.408;8.702;2023-06-10T12:37:55;3.77;;;3.37;;
6902;SDS011;20232;49.408;8.702;2023-06-10T12:40:31;3.80;;;3.23;;
6902;SDS011;20232;49.408;8.702;2023-06-10T12:42:58;3.27;;;2.97;;
6902;SDS011;20232;49.408;8.702;2023-06-10T12:45:27;3.90;;;3.37;;
6902;SDS011;20232;49.408;8.702;2023-06-10T12:48:03;3.20;;;3.00;;
6902;SDS011;20232;49.408;8.702;2023-06-10T12:50:30;3.30;;;3.00;;
6902;SDS011;20232;49.408;8.702;2023-06-10T12:52:56;3.50;;;3.20;;
6902;SDS011;20232;49.408;8.702;2023-06-10T12:55:22;3.17;;;2.93;;
6902;SDS011;20232;49.408;8.702;2023-06-10T12:57:48;3.30;;;3.00;;
6902;SDS011;20232;49.408;8.702;2023-06-10T13:00:14;3.60;;;3.20;;
6902;SDS011;20232;49.408;8.702;2023-06-10T13:02:40;3.37;;;2.83;;
6902;SDS011;20232;49.408;8.702;2023-06-10T13:05:06;3.40;;;3.10;;
6902;SDS011;20232;49.408;8.702;2023-06-10T13:07:31;3.33;;;3.03;;
6902;SDS011;20232;49.408;8.702;2023-06-10T13:09:57;3.10;;;2.90;;
6902;SDS011;20232;49.408;8.702;2023-06-10T13:12:24;5.77;;;3.00;;
6902;SDS011;20232;49.408;8.702;2023-06-10T13:14:51;3.00;;;2.80;;
6902;SDS011;20232;49.408;8.702;2023-06-10T13:17:18;3.40;;;3.10;;
6902;SDS011;20232;49.408;8.702;2023-06-10T13:19:44;4.23;;;3.10;;
6902;SDS011;20232;49.408;8.702;2023-06-10T13:22:09;3.00;;;2.80;;
6902;SDS011;20232;49.408;8.702;2023-06-10T13:24:35;3.33;;;2.83;;
6902;SDS011;20232;49.408;8.702;2023-06-10T13:27:00;3.90;;;3.00;;
6902;SDS011;20232;49.408;8.702;2023-06-10T13:29:25;2.90;;;2.70;;
6902;SDS011;20232;49.408;8.702;2023-06-10T13:31:51;3.03;;;2.83;;
6902;SDS011;20232;49.408;8.702;2023-06-10T13:34:16;2.67;;;2.57;;
6902;SDS011;20232;49.408;8.702;2023-06-10T13:36:42;5.13;;;2.83;;
6902;SDS011;20232;49.408;8.702;2023-06-10T13:39:07;3.93;;;2.57;;
6902;SDS011;20232;49.408;8.702;2023-06-10T13:41:33;3.97;;;2.57;;
6902;SDS011;20232;49.408;8.702;2023-06-10T13:43:58;2.63;;;2.43;;
6902;SDS011;20232;49.408;8.702;2023-06-10T13:46:23;3.43;;;2.80;;
6902;SDS011;20232;49.408;8.702;2023-06-10T13:48:49;3.17;;;2.73;;
6902;SDS011;20232;49.408;8.702;2023-06-10T13:51:14;2.87;;;2.60;;
6902;SDS011;20232;49.408;8.702;2023-06-10T13:53:40;2.93;;;2.43;;
6902;SDS011;20232;49.408;8.702;2023-06-10T13:56:05;3.17;;;2.80;;
6902;SDS011;20232;49.408;8.702;2023-06-10T13:58:31;2.83;;;2.60;;
6902;SDS011;20232;49.408;8.702;2023-06-10T14:00:56;2.50;;;2.37;;
6902;SDS011;20232;49.408;8.702;2023-06-10T14:03:23;2.70;;;2.50;;
6902;SDS011;20232;49.408;8.702;2023-06-10T14:05:49;2.60;;;2.40;;
6902;SDS011;20232;49.408;8.702;2023-06-10T14:08:14;2.60;;;2.40;;
6902;SDS011;20232;49.408;8.702;2023-06-10T14:10:39;3.33;;;2.40;;
6902;SDS011;20232;49.408;8.702;2023-06-10T14:13:05;3.03;;;2.37;;
6902;SDS011;20232;49.408;8.702;2023-06-10T14:15:31;3.67;;;2.80;;
6902;SDS011;20232;49.408;8.702;2023-06-10T14:17:57;2.97;;;2.57;;
6902;SDS011;20232;49.408;8.702;2023-06-10T14:20:22;2.63;;;2.27;;
6902;SDS011;20232;49.408;8.702;2023-06-10T14:22:50;2.93;;;2.60;;
6902;SDS011;20232;49.408;8.702;2023-06-10T14:25:15;3.10;;;2.90;;
6902;SDS011;20232;49.408;8.702;2023-06-10T14:27:41;2.73;;;2.53;;
6902;SDS011;20232;49.408;8.702;2023-06-10T14:30:07;3.73;;;2.30;;
6902;SDS011;20232;49.408;8.702;2023-06-10T14:32:32;3.17;;;2.97;;
6902;SDS011;20232;49.408;8.702;2023-06-10T14:34:58;2.80;;;2.60;;
6902;SDS011;20232;49.408;8.702;2023-06-10T14:37:23;3.83;;;2.70;;
6902;SDS011;20232;49.408;8.702;2023-06-10T14:39:49;2.77;;;2.57;;
6902;SDS011;20232;49.408;8.702;2023-06-10T14:42:14;3.80;;;2.80;;
6902;SDS011;20232;49.408;8.702;2023-06-10T14:44:40;3.20;;;2.90;;
6902;SDS011;20232;49.408;8.702;2023-06-10T14:47:05;4.83;;;2.60;;
6902;SDS011;20232;49.408;8.702;2023-06-10T14:49:30;4.13;;;3.17;;
6902;SDS011;20232;49.408;8.702;2023-06-10T14:51:56;3.30;;;3.00;;
6902;SDS011;20232;49.408;8.702;2023-06-10T14:54:21;3.27;;;2.97;;
6902;SDS011;20232;49.408;8.702;2023-06-10T14:56:47;3.47;;;3.20;;
6902;SDS011;20232;49.408;8.702;2023-06-10T14:59:12;3.50;;;3.23;;
6902;SDS011;20232;49.408;8.702;2023-06-10T15:01:37;4.53;;;3.47;;
6902;SDS011;20232;49.408;8.702;2023-06-10T15:04:03;4.10;;;3.37;;
6902;SDS011;20232;49.408;8.702;2023-06-10T15:06:28;5.20;;;3.30;;
6902;SDS011;20232;49.408;8.702;2023-06-10T15:08:54;3.27;;;3.07;;
6902;SDS011;20232;49.408;8.702;2023-06-10T15:11:19;4.07;;;3.23;;
6902;SDS011;20232;49.408;8.702;2023-06-10T15:13:46;4.97;;;3.20;;
6902;SDS011;20232;49.408;8.702;2023-06-10T15:16:11;3.93;;;3.20;;
6902;SDS011;20232;49.408;8.702;2023-06-10T15:18:37;3.63;;;3.33;;
6902;SDS011;20232;49.408;8.702;2023-06-10T15:21:02;3.47;;;2.90;;
6902;SDS011;20232;49.408;8.702;2023-06-10T15:23:28;3.90;;;3.07;;
6902;SDS011;20232;49.408;8.702;2023-06-10T15:25:53;2.80;;;2.60;;
6902;SDS011;20232;49.408;8.702;2023-06-10T15:28:19;3.73;;;3.10;;
6902;SDS011;20232;49.408;8.702;2023-06-10T15:30:44;2.90;;;2.70;;
6902;SDS011;20232;49.408;8.702;2023-06-10T15:33:09;4.80;;;3.10;;
6902;SDS011;20232;49.408;8.702;2023-06-10T15:35:35;3.13;;;2.83;;
6902;SDS011;20232;49.408;8.702;2023-06-10T15:38:00;4.70;;;3.10;;
6902;SDS011;20232;49.408;8.702;2023-06-10T15:40:26;4.33;;;3.00;;
6902;SDS011;20232;49.408;8.702;2023-06-10T15:42:51;4.17;;;3.10;;
6902;SDS011;20232;49.408;8.702;2023-06-10T15:45:17;4.77;;;3.07;;
6902;SDS011;20232;49.408;8.702;2023-06-10T15:47:42;3.20;;;2.90;;
6902;SDS011;20232;49.408;8.702;2023-06-10T15:50:08;4.83;;;3.50;;
6902;SDS011;20232;49.408;8.702;2023-06-10T15:52:34;3.27;;;3.00;;
6902;SDS011;20232;49.408;8.702;2023-06-10T15:55:00;3.67;;;3.33;;
6902;SDS011;20232;49.408;8.702;2023-06-10T15:57:26;5.10;;;3.33;;
6902;SDS011;20232;49.408;8.702;2023-06-10T15:59:52;4.57;;;3.23;;
6902;SDS011;20232;49.408;8.702;2023-06-10T16:02:17;3.57;;;3.27;;
6902;SDS011;20232;49.408;8.702;2023-06-10T16:04:42;3.73;;;3.10;;
6902;SDS011;20232;49.408;8.702;2023-06-10T16:07:08;4.03;;;3.27;;
6902;SDS011;20232;49.408;8.702;2023-06-10T16:09:33;3.53;;;3.30;;
6902;SDS011;20232;49.408;8.702;2023-06-10T16:12:00;4.30;;;3.40;;
6902;SDS011;20232;49.408;8.702;2023-06-10T16:14:25;3.63;;;3.33;;
6902;SDS011;20232;49.408;8.702;2023-06-10T16:16:51;3.87;;;3.20;;
6902;SDS011;20232;49.408;8.702;2023-06-10T16:19:16;3.80;;;3.20;;
6902;SDS011;20232;49.408;8.702;2023-06-10T16:21:42;4.10;;;3.67;;
6902;SDS011;20232;49.408;8.702;2023-06-10T16:24:08;4.80;;;3.30;;
6902;SDS011;20232;49.408;8.702;2023-06-10T16:26:33;3.67;;;3.47;;
6902;SDS011;20232;49.408;8.702;2023-06-10T16:28:59;3.87;;;3.50;;
6902;SDS011;20232;49.408;8.702;2023-06-10T16:31:24;3.73;;;3.50;;
6902;SDS011;20232;49.408;8.702;2023-06-10T16:33:49;3.80;;;3.40;;
6902;SDS011;20232;49.408;8.702;2023-06-10T16:36:15;5.57;;;3.50;;
6902;SDS011;20232;49.408;8.702;2023-06-10T16:38:40;4.90;;;3.70;;
6902;SDS011;20232;49.408;8.702;2023-06-10T16:41:06;4.10;;;3.60;;
6902;SDS011;20232;49.408;8.702;2023-06-10T16:43:31;3.70;;;3.40;;
6902;SDS011;20232;49.408;8.702;2023-06-10T16:45:56;3.93;;;3.63;;
6902;SDS011;20232;49.408;8.702;2023-06-10T16:48:22;5.83;;;3.70;;
6902;SDS011;20232;49.408;8.702;2023-06-10T16:50:48;4.00;;;3.70;;
6902;SDS011;20232;49.408;8.702;2023-06-10T16:53:13;3.60;;;3.30;;
6902;SDS011;20232;49.408;8.702;2023-06-10T16:55:38;5.27;;;4.80;;
6902;SDS011;20232;49.408;8.702;2023-06-10T16:58:06;4.50;;;3.60;;
6902;SDS011;20232;49.408;8.702;2023-06-10T17:00:32;6.93;;;4.00;;
6902;SDS011;20232;49.408;8.702;2023-06-10T17:02:57;4.20;;;3.80;;
6902;SDS011;20232;49.408;8.702;2023-06-10T17:05:22;4.93;;;3.77;;
6902;SDS011;20232;49.408;8.702;2023-06-10T17:07:48;3.90;;;3.60;;
6902;SDS011;20232;49.408;8.702;2023-06-10T17:10:13;4.13;;;3.70;;
6902;SDS011;20232;49.408;8.702;2023-06-10T17:12:39;5.10;;;3.97;;
6902;SDS011;20232;49.408;8.702;2023-06-10T17:15:05;3.87;;;3.53;;
6902;SDS011;20232;49.408;8.702;2023-06-10T17:17:33;4.10;;;3.80;;
6902;SDS011;20232;49.408;8.702;2023-06-10T17:19:59;4.60;;;4.00;;
6902;SDS011;20232;49.408;8.702;2023-06-10T17:22:25;5.33;;;3.63;;
6902;SDS011;20232;49.408;8.702;2023-06-10T17:24:51;5.17;;;3.83;;
6902;SDS011;20232;49.408;8.702;2023-06-10T17:27:16;6.57;;;3.63;;
6902;SDS011;20232;49.408;8.702;2023-06-10T17:29:42;4.93;;;3.87;;
6902;SDS011;20232;49.408;8.702;2023-06-10T17:32:07;3.77;;;3.47;;
6902;SDS011;20232;49.408;8.702;2023-06-10T17:34:33;4.00;;;3.70;;
6902;SDS011;20232;49.408;8.702;2023-06-10T17:36:58;3.70;;;3.40;;
6902;SDS011;20232;49.408;8.702;2023-06-10T17:39:23;3.57;;;3.37;;
6902;SDS011;20232;49.408;8.702;2023-06-10T17:41:49;4.73;;;3.93;;
6902;SDS011;20232;49.408;8.702;2023-06-10T17:44:16;4.17;;;3.87;;
6902;SDS011;20232;49.408;8.702;2023-06-10T17:46:46;4.50;;;3.70;;
6902;SDS011;20232;49.408;8.702;2023-06-10T17:49:11;4.50;;;4.10;;
6902;SDS011;20232;49.408;8.702;2023-06-10T17:51:37;3.87;;;3.57;;
6902;SDS011;20232;49.408;8.702;2023-06-10T17:54:02;4.73;;;3.67;;
6902;SDS011;20232;49.408;8.702;2023-06-10T17:56:28;4.03;;;3.67;;
6902;SDS011;20232;49.408;8.702;2023-06-10T17:58:53;4.10;;;3.70;;
6902;SDS011;20232;49.408;8.702;2023-06-10T18:01:19;3.73;;;3.43;;
6902;SDS011;20232;49.408;8.702;2023-06-10T18:03:44;3.50;;;3.20;;
6902;SDS011;20232;49.408;8.702;2023-06-10T18:06:09;5.30;;;4.30;;
6902;SDS011;20232;49.408;8.702;2023-06-10T18:08:35;4.70;;;4.30;;
6902;SDS011;20232;49.408;8.702;2023-06-10T18:11:00;4.57;;;3.87;;
6902;SDS011;20232;49.408;8.702;2023-06-10T18:13:27;5.50;;;3.83;;
6902;SDS011;20232;49.408;8.702;2023-06-10T18:15:53;4.63;;;3.50;;
6902;SDS011;20232;49.408;8.702;2023-06-10T18:18:18;4.17;;;3.80;;
6902;SDS011;20232;49.408;8.702;2023-06-10T18:20:44;4.27;;;3.40;;
6902;SDS011;20232;49.408;8.702;2023-06-10T18:23:09;3.47;;;3.10;;
6902;SDS011;20232;49.408;8.702;2023-06-10T18:25:34;3.87;;;3.23;;
6902;SDS011;20232;49.408;8.702;2023-06-10T18:28:00;3.27;;;2.90;;
6902;SDS011;20232;49.408;8.702;2023-06-10T18:30:25;3.80;;;3.00;;
6902;SDS011;20232;49.408;8.702;2023-06-10T18:32:51;3.87;;;2.90;;
6902;SDS011;20232;49.408;8.702;2023-06-10T18:35:16;3.33;;;3.00;;
6902;SDS011;20232;49.408;8.702;2023-06-10T18:37:42;3.43;;;3.07;;
6902;SDS011;20232;49.408;8.702;2023-06-10T18:40:07;3.60;;;3.30;;
6902;SDS011;20232;49.408;8.702;2023-06-10T18:42:34;3.97;;;3.43;;
6902;SDS011;20232;49.408;8.702;2023-06-10T18:44:59;3.87;;;3.20;;
6902;SDS011;20232;49.408;8.702;2023-06-10T18:47:25;3.57;;;3.27;;
6902;SDS011;20232;49.408;8.702;2023-06-10T18:49:50;3.20;;;3.00;;
6902;SDS011;20232;49.408;8.702;2023-06-10T18:52:16;3.83;;;3.30;;
6902;SDS011;20232;49.408;8.702;2023-06-10T18:54:41;3.20;;;2.90;;
6902;SDS011;20232;49.408;8.702;2023-06-10T18:57:06;3.50;;;3.20;;
6902;SDS011;20232;49.408;8.702;2023-06-10T18:59:33;3.53;;;3.33;;
6902;SDS011;20232;49.408;8.702;2023-06-10T19:01:58;4.27;;;3.97;;
6902;SDS011;20232;49.408;8.702;2023-06-10T19:04:24;5.30;;;3.37;;
6902;SDS011;20232;49.408;8.702;2023-06-10T19:06:49;3.53;;;3.10;;
6902;SDS011;20232;49.408;8.702;2023-06-10T19:09:15;3.70;;;3.40;;
6902;SDS011;20232;49.408;8.702;2023-06-10T19:11:40;3.17;;;2.97;;
6902;SDS011;20232;49.408;8.702;2023-06-10T19:14:05;3.50;;;3.30;;